To NAV CANADA Home Page Login to a new session Search on AWWS site Feedback and Comments Disclaimer Vers la page française équivalente Tips FAQ What's new on the site To the Forecasts and Observations / NOTAM section To "File a Flight Plan" website Publications and other links Update of the User's profile FIC Telephone Numbers My Weather Data Folder Route Weather Data Regional Weather Data Local Weather Data To the Forecasts and Observations / NOTAM section
Request Generated 03/30/2015 at 23:00:06 UTC . Weather information available at that time is displayed.

METAR/TAF

CALGARY/CALGARY INTL/AB    

METAR CYYC 302200Z 18007KT 140V220 40SM FEW074 SCT100 SCT300 17/M01
A2984 RMK CU1AC2CI1 SLP121 DENSITY ALT 4700FT=
METAR CYYC 302100Z 17008KT 40SM SCT090 BKN300 14/M01 A2987 RMK AC4CI1
SLP135 DENSITY ALT 4400FT=
METAR CYYC 302000Z 16010G16KT 140V200 40SM SCT090 14/00 A2990 RMK AC4
SLP145 DENSITY ALT 4300FT=

TAF CYYC 302038Z 3021/3118 16015KT P6SM FEW090
BECMG 3022/3024 23015KT
FM310300 21008KT P6SM SCT200
BECMG 3109/3111 17008KT
RMK NXT FCST BY 310000Z=
Your time UTC time
Weather data provided by Environment Canada and NAV CANADA